Time;durP1;ratioP1;P1;durP2;ratioP2;P2;SDS_P1;SDS_P2;PMS_P1;PMS_P2;Temp;Humidity;BMP_temperature;BMP_pressure;BME280_temperature;BME280_humidity;BME280_pressure;Samples;Min_cycle;Max_cycle;Signal;HPM_P1;HPM_P2
2021/11/16 00:00:37;;;;;;;23.83;10.15;;;9.00;99.90;;;;;;5074259;28;20032;-75
2021/11/16 00:03:03;;;;;;;22.35;10.02;;;9.00;99.90;;;;;;5092496;28;20465;-74
2021/11/16 00:05:29;;;;;;;21.80;9.85;;;9.00;99.90;;;;;;5077350;28;20361;-75
2021/11/16 00:07:56;;;;;;;24.50;10.30;;;9.00;99.90;;;;;;5096567;28;20024;-74
2021/11/16 00:10:22;;;;;;;22.88;10.35;;;9.10;99.90;;;;;;5078326;28;20020;-74
2021/11/16 00:12:48;;;;;;;26.10;11.25;;;9.10;99.90;;;;;;5077571;28;20023;-73
2021/11/16 00:15:14;;;;;;;22.23;10.35;;;9.10;99.90;;;;;;5096273;28;20476;-74
2021/11/16 00:17:39;;;;;;;22.33;10.48;;;9.10;99.90;;;;;;5077433;28;20048;-75
2021/11/16 00:20:10;;;;;;;21.75;9.57;;;9.10;99.90;;;;;;5096141;28;20070;-73
2021/11/16 00:22:36;;;;;;;23.77;10.63;;;9.10;99.90;;;;;;5077150;28;20039;-74
2021/11/16 00:27:30;;;;;;;24.17;9.77;;;9.00;99.90;;;;;;5095943;28;20441;-74
2021/11/16 00:29:56;;;;;;;23.17;10.73;;;8.90;99.90;;;;;;5095680;28;20063;-74
2021/11/16 00:32:23;;;;;;;23.90;10.27;;;9.00;99.90;;;;;;5095836;28;20094;-74
2021/11/16 00:34:49;;;;;;;23.58;10.52;;;9.00;99.90;;;;;;5095278;28;20070;-74
2021/11/16 00:37:16;;;;;;;23.33;10.90;;;9.00;99.90;;;;;;5095366;28;20024;-74
2021/11/16 00:39:42;;;;;;;22.40;10.98;;;9.00;99.90;;;;;;5076873;28;20032;-74
2021/11/16 00:42:08;;;;;;;26.40;11.15;;;9.00;99.90;;;;;;5077507;28;20353;-74
2021/11/16 00:44:33;;;;;;;25.15;11.07;;;9.00;99.90;;;;;;5095076;28;20020;-75
2021/11/16 00:46:59;;;;;;;23.20;9.63;;;8.90;99.90;;;;;;5095681;28;20020;-74
2021/11/16 00:49:25;;;;;;;21.52;10.05;;;9.00;99.90;;;;;;5095542;28;20050;-75
2021/11/16 00:51:50;;;;;;;24.98;10.05;;;9.00;99.90;;;;;;5076893;28;20020;-74
2021/11/16 00:54:16;;;;;;;22.52;10.60;;;9.10;99.90;;;;;;5077310;28;20016;-74
2021/11/16 00:56:42;;;;;;;25.58;10.60;;;9.00;99.90;;;;;;5094819;28;20020;-75
2021/11/16 00:59:07;;;;;;;24.13;10.70;;;9.00;99.90;;;;;;5095111;28;20025;-75
2021/11/16 01:01:33;;;;;;;21.50;10.32;;;9.00;99.90;;;;;;5076700;28;20492;-74
2021/11/16 01:04:00;;;;;;;26.48;10.38;;;9.00;99.90;;;;;;5077194;28;20456;-75
2021/11/16 01:06:26;;;;;;;25.73;11.35;;;9.00;99.90;;;;;;5077217;28;20016;-75
2021/11/16 01:08:52;;;;;;;24.98;10.50;;;9.00;99.90;;;;;;5076169;28;20024;-74
2021/11/16 01:11:18;;;;;;;23.70;11.20;;;8.90;99.90;;;;;;5094861;28;20162;-75
2021/11/16 01:13:43;;;;;;;21.23;10.20;;;9.00;99.90;;;;;;5094592;28;20330;-75
2021/11/16 01:16:10;;;;;;;23.63;10.20;;;8.90;99.90;;;;;;5075920;28;20093;-74
2021/11/16 01:18:36;;;;;;;25.27;10.73;;;8.90;99.90;;;;;;5094305;28;20020;-74
2021/11/16 01:21:01;;;;;;;26.30;10.55;;;8.90;99.90;;;;;;5076769;28;20024;-74
2021/11/16 01:23:27;;;;;;;23.67;10.90;;;8.90;99.90;;;;;;5094909;28;20029;-74
2021/11/16 01:25:55;;;;;;;23.00;10.55;;;8.80;99.90;;;;;;5076027;28;20024;-74
2021/11/16 01:28:26;;;;;;;24.35;10.50;;;8.80;99.90;;;;;;5076725;28;20031;-74
2021/11/16 01:30:54;;;;;;;31.42;11.32;;;8.90;99.90;;;;;;5094047;28;20081;-74
2021/11/16 01:33:27;;;;;;;23.63;11.02;;;8.80;99.90;;;;;;5076660;28;20028;-74
2021/11/16 01:35:54;;;;;;;26.55;11.25;;;8.80;99.90;;;;;;5076016;28;20052;-74
2021/11/16 01:38:22;;;;;;;26.95;10.95;;;8.80;99.90;;;;;;5076373;28;20028;-74
2021/11/16 01:40:48;;;;;;;25.55;11.45;;;8.70;99.90;;;;;;5075747;28;20024;-74
2021/11/16 01:43:16;;;;;;;24.55;10.30;;;8.70;99.90;;;;;;5076481;28;20069;-74
2021/11/16 01:45:43;;;;;;;21.48;10.35;;;8.70;99.90;;;;;;5093787;28;20062;-74
2021/11/16 01:48:10;;;;;;;22.70;10.23;;;8.80;99.90;;;;;;5094438;28;20027;-74
2021/11/16 01:50:38;;;;;;;25.75;10.88;;;8.70;99.90;;;;;;5093920;28;20024;-75
2021/11/16 01:53:04;;;;;;;21.73;10.63;;;8.70;99.90;;;;;;5094326;28;20020;-73
2021/11/16 01:55:30;;;;;;;23.88;10.13;;;8.70;99.90;;;;;;5075904;28;20024;-74
2021/11/16 01:57:56;;;;;;;24.25;10.38;;;8.70;99.90;;;;;;5075369;28;20443;-74
2021/11/16 02:00:30;;;;;;;27.10;10.73;;;8.70;99.90;;;;;;5094121;28;20106;-74
2021/11/16 02:02:57;;;;;;;24.42;10.82;;;8.80;99.90;;;;;;5075511;28;20156;-74
2021/11/16 02:05:38;;;;;;;26.33;10.77;;;8.80;99.90;;;;;;5093835;28;20020;-74
2021/11/16 02:08:05;;;;;;;23.55;10.93;;;8.80;99.90;;;;;;5094218;28;20030;-74
2021/11/16 02:10:31;;;;;;;23.08;10.85;;;8.80;99.90;;;;;;5075914;28;20028;-74
2021/11/16 02:12:57;;;;;;;26.30;11.27;;;8.70;99.90;;;;;;5093412;28;20576;-74
2021/11/16 02:15:23;;;;;;;24.42;11.05;;;8.70;99.90;;;;;;5093741;28;20024;-74
2021/11/16 02:17:49;;;;;;;25.08;10.98;;;8.70;99.90;;;;;;5075025;28;20016;-75
2021/11/16 02:20:16;;;;;;;21.75;10.25;;;8.70;99.90;;;;;;5075683;28;20408;-74
2021/11/16 02:22:43;;;;;;;25.63;11.32;;;8.80;99.90;;;;;;5075027;28;20114;-75
2021/11/16 02:25:09;;;;;;;23.42;10.60;;;8.80;99.90;;;;;;5075643;28;20026;-75
2021/11/16 02:27:35;;;;;;;22.27;10.52;;;8.70;99.90;;;;;;5075435;28;20020;-74
2021/11/16 02:30:00;;;;;;;24.70;10.52;;;8.70;99.90;;;;;;5075018;28;20107;-75
2021/11/16 02:32:27;;;;;;;26.15;12.02;;;8.70;99.90;;;;;;5075385;28;20016;-75
2021/11/16 02:34:53;;;;;;;25.60;11.65;;;8.70;99.90;;;;;;5093332;28;20081;-75
2021/11/16 02:37:18;;;;;;;29.08;11.98;;;8.70;99.90;;;;;;5093370;28;20032;-74
2021/11/16 02:39:44;;;;;;;31.05;13.15;;;8.70;99.90;;;;;;5074713;28;20342;-74
2021/11/16 02:42:10;;;;;;;28.80;12.43;;;8.70;99.90;;;;;;5075387;28;20047;-74
2021/11/16 02:44:36;;;;;;;32.72;12.20;;;8.70;99.90;;;;;;5075253;28;20024;-74
2021/11/16 02:47:01;;;;;;;25.45;11.18;;;8.70;99.90;;;;;;5074529;28;20020;-74
2021/11/16 02:49:32;;;;;;;25.02;11.45;;;8.70;99.90;;;;;;5093125;28;20056;-74
2021/11/16 02:51:57;;;;;;;27.88;12.70;;;8.70;99.90;;;;;;5074591;28;20567;-74
2021/11/16 02:54:23;;;;;;;30.60;12.90;;;8.70;99.90;;;;;;5075072;28;20028;-73
2021/11/16 02:56:50;;;;;;;28.38;12.25;;;8.80;99.90;;;;;;5074335;28;20020;-74
2021/11/16 02:59:16;;;;;;;26.00;12.07;;;8.70;99.90;;;;;;5075011;28;20077;-74
2021/11/16 03:01:42;;;;;;;26.45;11.65;;;8.80;99.90;;;;;;5092265;28;20028;-74
2021/11/16 03:04:08;;;;;;;28.05;12.80;;;8.80;99.90;;;;;;5074962;28;20024;-74
2021/11/16 03:06:34;;;;;;;27.13;11.48;;;8.80;99.90;;;;;;5093264;28;20035;-74
2021/11/16 03:09:00;;;;;;;25.80;11.82;;;8.70;99.90;;;;;;5092643;28;20027;-74
2021/11/16 03:11:26;;;;;;;28.10;12.60;;;8.70;99.90;;;;;;5074825;28;20069;-74
2021/11/16 03:13:53;;;;;;;27.25;12.02;;;8.70;99.90;;;;;;5074171;28;20028;-75
2021/11/16 03:16:21;;;;;;;29.40;11.48;;;8.80;99.90;;;;;;5092963;28;20028;-74
2021/11/16 03:18:54;;;;;;;29.45;12.15;;;8.80;99.90;;;;;;5074228;28;20055;-75
2021/11/16 03:21:23;;;;;;;27.30;12.07;;;8.70;99.90;;;;;;5074752;28;20115;-75
2021/11/16 03:23:50;;;;;;;30.30;12.55;;;8.80;99.90;;;;;;5092605;28;20031;-75
2021/11/16 03:26:19;;;;;;;27.48;11.50;;;8.80;99.90;;;;;;5092754;28;20023;-74
2021/11/16 03:28:49;;;;;;;25.17;11.32;;;8.80;99.90;;;;;;5074211;28;20055;-75
2021/11/16 03:31:28;;;;;;;27.73;11.30;;;8.90;99.90;;;;;;5074521;28;20028;-73
2021/11/16 03:33:54;;;;;;;25.77;11.27;;;8.80;99.90;;;;;;5074161;28;20027;-73
2021/11/16 03:36:22;;;;;;;27.10;10.95;;;8.80;99.90;;;;;;5074429;28;20162;-75
2021/11/16 03:38:49;;;;;;;26.45;11.32;;;8.80;99.90;;;;;;5074366;28;20032;-75
2021/11/16 03:41:16;;;;;;;31.75;12.07;;;8.80;99.90;;;;;;5096334;28;20035;-73
2021/11/16 03:43:44;;;;;;;28.45;12.07;;;8.80;99.90;;;;;;5096868;28;20024;-73
2021/11/16 03:46:09;;;;;;;28.17;11.68;;;8.70;99.90;;;;;;5096640;28;20093;-74
2021/11/16 03:48:35;;;;;;;24.45;10.95;;;8.70;99.90;;;;;;5096811;28;20051;-75
2021/11/16 03:51:02;;;;;;;26.42;10.70;;;8.70;99.90;;;;;;5095605;28;20039;-74
2021/11/16 03:53:28;;;;;;;30.63;12.18;;;8.70;99.90;;;;;;5096275;28;20349;-73
2021/11/16 03:55:53;;;;;;;26.83;11.45;;;8.80;99.90;;;;;;5096107;28;20016;-75
2021/11/16 03:58:22;;;;;;;28.45;11.63;;;8.70;99.90;;;;;;5078017;28;20051;-74
2021/11/16 04:00:51;;;;;;;28.27;12.45;;;8.70;99.90;;;;;;5095687;28;20345;-75
2021/11/16 04:03:21;;;;;;;30.48;12.60;;;8.60;99.90;;;;;;5078012;28;20032;-74
2021/11/16 04:05:47;;;;;;;28.15;11.98;;;8.60;99.90;;;;;;5077840;28;20027;-75
2021/11/16 04:08:13;;;;;;;30.05;12.23;;;8.70;99.90;;;;;;5096457;28;20028;-74
2021/11/16 04:10:39;;;;;;;27.73;12.10;;;8.70;99.90;;;;;;5096190;28;20032;-74
2021/11/16 04:13:05;;;;;;;28.02;12.50;;;8.70;99.90;;;;;;5095813;28;20353;-73
2021/11/16 04:15:32;;;;;;;25.45;11.73;;;8.70;99.90;;;;;;5096031;28;20398;-73
2021/11/16 04:18:00;;;;;;;26.08;11.93;;;8.60;99.90;;;;;;5077436;28;20103;-73
2021/11/16 04:20:32;;;;;;;27.45;11.65;;;8.60;99.90;;;;;;5095862;28;20031;-74
2021/11/16 04:23:00;;;;;;;26.45;12.43;;;8.60;99.90;;;;;;5077471;28;20039;-73
2021/11/16 04:25:26;;;;;;;27.50;11.68;;;8.70;99.90;;;;;;5096087;28;20024;-74
2021/11/16 04:27:53;;;;;;;29.15;11.68;;;8.60;99.90;;;;;;5077145;28;20445;-74
2021/11/16 04:30:22;;;;;;;28.58;11.95;;;8.60;99.90;;;;;;5077624;28;20445;-74
2021/11/16 04:32:48;;;;;;;27.58;12.10;;;8.60;99.90;;;;;;5076771;28;20077;-74
2021/11/16 04:35:15;;;;;;;27.83;11.15;;;8.60;99.90;;;;;;5077728;28;20051;-74
2021/11/16 04:37:43;;;;;;;26.95;12.60;;;8.60;99.90;;;;;;5077354;28;20031;-74
2021/11/16 04:40:11;;;;;;;30.27;11.05;;;8.60;99.90;;;;;;5094975;28;20023;-75
2021/11/16 04:42:37;;;;;;;29.73;11.70;;;8.70;99.90;;;;;;5077514;28;20028;-73
2021/11/16 04:45:10;;;;;;;31.52;12.45;;;8.70;99.90;;;;;;5077056;28;20019;-75
2021/11/16 04:53:00;;;;;;;30.55;12.52;;;8.60;99.90;;;;;;5094921;28;20025;-75
2021/11/16 05:03:41;;;;;;;24.98;11.15;;;8.70;99.90;;;;;;5090275;28;20047;-75
2021/11/16 05:06:06;;;;;;;27.88;11.60;;;8.70;99.90;;;;;;5095208;28;20522;-75
2021/11/16 05:08:32;;;;;;;32.38;12.43;;;8.80;99.90;;;;;;5095116;28;20380;-75
2021/11/16 05:10:58;;;;;;;30.23;12.30;;;8.80;99.90;;;;;;5069147;28;20500;-76
2021/11/16 05:13:23;;;;;;;27.25;12.43;;;8.80;99.90;;;;;;5075252;28;20028;-75
2021/11/16 05:15:50;;;;;;;32.33;12.98;;;8.80;99.90;;;;;;5056679;28;20025;-76
2021/11/16 05:18:16;;;;;;;34.08;12.75;;;8.70;99.90;;;;;;5074888;28;20117;-74
2021/11/16 05:20:42;;;;;;;29.40;12.85;;;8.70;99.90;;;;;;5056799;28;20078;-73
2021/11/16 05:23:10;;;;;;;33.55;14.13;;;8.60;99.90;;;;;;5055898;28;20573;-72
2021/11/16 05:25:36;;;;;;;35.05;14.80;;;8.60;99.90;;;;;;5056403;28;20030;-73
2021/11/16 05:28:02;;;;;;;34.92;15.00;;;8.60;99.90;;;;;;5074032;28;20021;-73
2021/11/16 05:30:35;;;;;;;34.45;14.00;;;8.60;99.90;;;;;;5063817;28;20415;-74
2021/11/16 05:33:00;;;;;;;30.05;12.98;;;8.60;99.90;;;;;;5075168;28;20028;-74
2021/11/16 05:35:26;;;;;;;29.27;12.80;;;8.60;99.90;;;;;;5089704;28;20042;-73
2021/11/16 05:37:52;;;;;;;36.08;14.15;;;8.60;99.90;;;;;;5075453;28;20063;-73
2021/11/16 05:40:17;;;;;;;33.22;13.02;;;8.50;99.90;;;;;;5075848;28;20133;-74
2021/11/16 05:42:43;;;;;;;31.15;12.32;;;8.50;99.90;;;;;;5076117;28;20453;-73
2021/11/16 05:45:09;;;;;;;33.50;12.93;;;8.50;99.90;;;;;;5075537;28;20302;-74
2021/11/16 05:47:38;;;;;;;30.27;13.05;;;8.60;99.90;;;;;;5075397;28;20073;-73
2021/11/16 05:50:05;;;;;;;26.20;11.80;;;8.50;99.90;;;;;;5075089;28;20038;-74
2021/11/16 05:52:30;;;;;;;28.27;11.77;;;8.60;99.90;;;;;;5075885;28;20115;-74
2021/11/16 05:54:56;;;;;;;25.90;11.63;;;8.60;99.90;;;;;;5074843;28;20127;-72
2021/11/16 05:57:22;;;;;;;34.60;13.13;;;8.50;99.90;;;;;;5075977;28;20044;-74
2021/11/16 05:59:48;;;;;;;33.63;13.98;;;8.50;99.90;;;;;;5076260;28;20483;-75
2021/11/16 06:02:14;;;;;;;33.10;14.55;;;8.40;99.90;;;;;;5074694;28;20024;-74
2021/11/16 06:04:40;;;;;;;36.33;15.20;;;8.40;99.90;;;;;;5075088;28;20024;-74
2021/11/16 06:07:07;;;;;;;34.47;15.43;;;8.40;99.90;;;;;;5092782;28;20068;-73
2021/11/16 06:09:33;;;;;;;32.47;14.77;;;8.50;99.90;;;;;;5074776;28;20081;-75
2021/11/16 06:12:00;;;;;;;34.88;14.20;;;8.40;99.90;;;;;;5074576;28;20020;-75
2021/11/16 06:14:26;;;;;;;33.05;14.27;;;8.40;99.90;;;;;;5093551;28;20023;-75
2021/11/16 06:16:53;;;;;;;31.55;13.60;;;8.40;99.90;;;;;;5074755;28;20099;-75
2021/11/16 06:19:20;;;;;;;36.05;14.07;;;8.40;99.90;;;;;;5074994;28;20027;-73
2021/11/16 06:21:46;;;;;;;29.10;12.73;;;8.40;99.90;;;;;;5075753;28;20162;-75
2021/11/16 06:24:13;;;;;;;31.25;13.20;;;8.40;99.90;;;;;;5074522;28;20054;-75
2021/11/16 06:26:39;;;;;;;31.63;13.23;;;8.50;99.90;;;;;;5075387;28;20023;-73
2021/11/16 06:29:06;;;;;;;30.60;13.15;;;8.50;99.90;;;;;;5093044;28;20027;-74
2021/11/16 06:31:33;;;;;;;33.03;13.00;;;8.50;99.90;;;;;;5075254;28;20135;-73
2021/11/16 06:34:02;;;;;;;31.10;12.60;;;8.40;99.90;;;;;;5074154;28;20020;-73
2021/11/16 06:36:33;;;;;;;33.28;14.02;;;8.40;99.90;;;;;;5093014;28;20024;-74
2021/11/16 06:39:20;;;;;;;33.03;12.90;;;8.40;99.90;;;;;;5074524;28;20085;-74
2021/11/16 06:41:47;;;;;;;30.98;12.90;;;8.30;99.90;;;;;;5092739;28;20063;-73
2021/11/16 06:44:14;;;;;;;29.92;12.07;;;8.20;99.90;;;;;;5074609;28;20028;-74
2021/11/16 06:46:41;;;;;;;27.23;11.57;;;8.20;99.90;;;;;;5074953;28;20437;-74
2021/11/16 06:49:08;;;;;;;28.52;12.65;;;8.20;99.90;;;;;;5092244;28;20099;-74
2021/11/16 06:51:38;;;;;;;29.83;12.48;;;8.20;99.90;;;;;;5075188;28;20016;-74
2021/11/16 06:54:10;;;;;;;27.42;11.20;;;8.30;99.90;;;;;;5074131;28;20068;-74
2021/11/16 06:56:38;;;;;;;30.83;12.88;;;8.40;99.90;;;;;;5092895;28;20054;-73
2021/11/16 06:59:04;;;;;;;28.83;12.70;;;8.30;99.90;;;;;;5092608;28;20024;-74
2021/11/16 07:01:32;;;;;;;32.45;12.75;;;8.30;99.90;;;;;;5074969;28;20310;-73
2021/11/16 07:04:01;;;;;;;28.35;12.95;;;8.40;99.90;;;;;;5092403;28;20069;-74
2021/11/16 07:06:31;;;;;;;28.50;11.68;;;8.40;99.90;;;;;;5093162;28;20012;-74
2021/11/16 07:08:57;;;;;;;31.08;12.60;;;8.40;99.90;;;;;;5073912;28;20111;-74
2021/11/16 07:11:24;;;;;;;27.38;11.98;;;8.50;99.90;;;;;;5092965;28;20028;-73
2021/11/16 07:14:03;;;;;;;30.33;12.70;;;8.50;99.90;;;;;;5073423;28;20077;-74
2021/11/16 07:16:38;;;;;;;31.85;12.20;;;8.40;99.90;;;;;;5074608;28;20481;-73
2021/11/16 07:19:08;;;;;;;30.30;12.65;;;8.40;99.90;;;;;;5074304;28;20378;-74
2021/11/16 07:21:52;;;;;;;33.65;13.05;;;8.50;99.90;;;;;;5092702;28;20426;-74
2021/11/16 07:24:24;;;;;;;40.38;17.77;;;8.50;99.90;;;;;;5090402;28;20080;-74
2021/11/16 07:26:58;;;;;;;37.30;15.23;;;8.30;99.90;;;;;;5073975;28;20024;-74
2021/11/16 07:29:35;;;;;;;31.98;13.63;;;8.40;99.90;;;;;;5074769;28;20115;-74
2021/11/16 07:32:02;;;;;;;35.78;14.80;;;8.30;99.90;;;;;;5073986;28;20528;-74
2021/11/16 07:34:31;;;;;;;35.75;14.07;;;8.40;99.90;;;;;;5073719;28;20365;-74
2021/11/16 07:37:06;;;;;;;33.47;14.38;;;8.40;99.90;;;;;;5091180;28;20023;-74
2021/11/16 07:39:58;;;;;;;34.17;14.07;;;8.40;99.90;;;;;;5073284;28;20024;-74
2021/11/16 07:42:31;;;;;;;35.65;13.98;;;8.40;99.90;;;;;;5073860;28;20028;-73
2021/11/16 07:45:12;;;;;;;35.75;13.82;;;8.40;99.90;;;;;;5072849;28;20086;-74
2021/11/16 07:47:41;;;;;;;35.45;14.07;;;8.40;99.90;;;;;;5074112;28;20376;-73
2021/11/16 07:50:10;;;;;;;31.83;13.35;;;8.40;99.90;;;;;;5073305;28;20036;-73
2021/11/16 07:52:37;;;;;;;33.50;14.00;;;8.30;99.90;;;;;;5091586;28;20058;-73
2021/11/16 07:55:04;;;;;;;37.92;13.32;;;8.40;99.90;;;;;;5090455;28;20020;-73
2021/11/16 07:57:30;;;;;;;31.20;13.48;;;8.40;99.90;;;;;;5073412;28;20041;-72
2021/11/16 07:59:57;;;;;;;32.42;13.38;;;8.30;99.90;;;;;;5090892;28;20032;-73
2021/11/16 08:02:35;;;;;;;33.30;12.80;;;8.40;99.90;;;;;;5073850;28;20024;-73
2021/11/16 08:05:34;;;;;;;33.00;13.52;;;8.40;99.90;;;;;;5073537;28;20519;-74
2021/11/16 08:09:07;;;;;;;30.15;12.50;;;8.30;99.90;;;;;;5073101;28;20372;-74
2021/11/16 08:11:34;;;;;;;39.08;13.82;;;8.30;99.90;;;;;;5076984;28;20028;-74
2021/11/16 08:14:11;;;;;;;36.20;13.82;;;8.30;99.90;;;;;;5043474;28;20521;-74
2021/11/16 08:16:50;;;;;;;37.03;14.43;;;8.30;99.90;;;;;;5092097;28;20027;-73
2021/11/16 08:19:19;;;;;;;33.75;13.95;;;8.30;99.90;;;;;;5091491;28;20043;-73
2021/11/16 08:21:46;;;;;;;32.25;13.43;;;8.30;99.90;;;;;;5091785;28;20024;-73
2021/11/16 08:24:15;;;;;;;33.92;14.38;;;8.30;99.90;;;;;;5073244;28;20114;-74
2021/11/16 08:26:47;;;;;;;36.58;14.00;;;8.30;99.90;;;;;;5094650;28;20480;-73
2021/11/16 08:29:15;;;;;;;31.92;12.82;;;8.30;99.90;;;;;;5076817;28;20069;-74
2021/11/16 08:31:48;;;;;;;33.80;13.60;;;8.40;99.90;;;;;;5077465;28;20048;-74
2021/11/16 08:34:14;;;;;;;32.95;13.27;;;8.40;99.90;;;;;;5095179;28;20023;-74
2021/11/16 08:36:50;;;;;;;37.70;13.52;;;8.30;99.90;;;;;;5076754;28;20030;-74
2021/11/16 08:39:30;;;;;;;36.53;12.68;;;8.30;99.90;;;;;;5077407;28;20056;-74
2021/11/16 08:41:57;;;;;;;28.65;12.40;;;8.30;99.90;;;;;;5076686;28;20448;-73
2021/11/16 08:44:30;;;;;;;32.92;13.35;;;8.40;99.90;;;;;;5076392;28;20506;-74
2021/11/16 08:47:06;;;;;;;36.15;13.60;;;8.30;99.90;;;;;;5076151;28;20057;-74
2021/11/16 08:49:33;;;;;;;33.28;13.70;;;8.30;99.90;;;;;;5076933;28;20028;-73
2021/11/16 08:52:03;;;;;;;30.27;13.40;;;8.40;99.90;;;;;;5076422;28;20028;-74
2021/11/16 08:54:35;;;;;;;31.27;13.55;;;8.30;99.90;;;;;;5076561;28;20522;-72
2021/11/16 08:57:15;;;;;;;;;;;8.40;99.90;;;;;;5075669;28;20067;-74
2021/11/16 08:59:41;;;;;;;40.05;15.65;;;8.40;99.90;;;;;;5076545;28;19908;-73
2021/11/16 09:02:08;;;;;;;39.38;15.57;;;8.40;99.90;;;;;;5068830;28;20032;-73
2021/11/16 09:04:36;;;;;;;33.88;14.43;;;8.40;99.90;;;;;;5092227;28;20030;-73
2021/11/16 09:07:17;;;;;;;32.63;14.00;;;8.40;99.90;;;;;;5088726;28;20046;-74
2021/11/16 09:09:54;;;;;;;28.70;12.75;;;8.50;99.90;;;;;;5088423;28;20473;-73
2021/11/16 09:12:20;;;;;;;33.22;13.27;;;8.40;99.90;;;;;;5086008;28;20070;-73
2021/11/16 09:14:53;;;;;;;32.30;12.68;;;8.40;99.90;;;;;;5073119;28;20055;-74
2021/11/16 09:17:19;;;;;;;32.65;13.88;;;8.50;99.90;;;;;;5072885;28;20121;-74
2021/11/16 09:19:45;;;;;;;31.42;13.93;;;8.50;99.90;;;;;;5091163;28;20046;-74
2021/11/16 09:22:16;;;;;;;36.75;13.63;;;8.50;99.90;;;;;;5072714;28;20028;-73
2021/11/16 09:24:44;;;;;;;34.13;13.48;;;8.40;99.90;;;;;;5073719;28;20031;-73
2021/11/16 09:27:22;;;;;;;32.70;12.57;;;8.40;99.90;;;;;;5073142;28;20032;-73
2021/11/16 09:29:49;;;;;;;33.88;13.38;;;8.40;99.90;;;;;;5091866;28;20119;-73
2021/11/16 09:32:15;;;;;;;29.55;13.05;;;8.40;99.90;;;;;;5092012;28;20507;-74
2021/11/16 09:34:44;;;;;;;37.10;13.60;;;8.40;99.90;;;;;;5074981;28;20030;-75
2021/11/16 09:37:15;;;;;;;30.75;13.45;;;8.40;99.90;;;;;;5091104;28;20066;-75
2021/11/16 09:40:03;;;;;;;30.98;13.30;;;8.40;99.90;;;;;;5071601;28;20085;-74
2021/11/16 09:42:36;;;;;;;31.58;13.75;;;8.40;99.90;;;;;;5071439;28;20059;-74
2021/11/16 09:45:11;;;;;;;32.70;13.27;;;8.50;99.90;;;;;;5090125;28;20031;-74
2021/11/16 09:47:40;;;;;;;36.58;15.13;;;8.40;99.90;;;;;;5056698;28;20123;-72
2021/11/16 09:50:27;;;;;;;30.55;13.02;;;8.40;99.90;;;;;;5070874;28;20028;-73
2021/11/16 09:52:56;;;;;;;31.17;12.40;;;8.60;99.90;;;;;;5072993;28;20035;-73
2021/11/16 09:55:30;;;;;;;31.08;12.88;;;8.60;99.90;;;;;;5072511;28;20028;-73
2021/11/16 09:57:59;;;;;;;27.20;11.07;;;8.60;99.90;;;;;;5072393;28;20048;-76
2021/11/16 10:00:37;;;;;;;30.40;12.50;;;8.70;99.90;;;;;;5090362;28;20454;-73
2021/11/16 10:03:07;;;;;;;35.00;13.93;;;8.60;99.90;;;;;;5071997;28;20024;-73
2021/11/16 10:05:42;;;;;;;36.88;13.20;;;8.60;99.90;;;;;;5056799;28;20408;-73
2021/11/16 10:08:10;;;;;;;32.50;13.20;;;8.60;99.90;;;;;;5089875;28;20028;-73
2021/11/16 10:10:39;;;;;;;34.03;13.88;;;8.50;99.90;;;;;;5089588;28;20115;-72
2021/11/16 10:13:14;;;;;;;33.38;13.32;;;8.50;99.90;;;;;;5071119;28;20024;-73
2021/11/16 10:15:44;;;;;;;28.08;12.25;;;8.60;99.90;;;;;;5066228;28;20076;-71
2021/11/16 10:18:11;;;;;;;32.92;12.65;;;8.60;99.90;;;;;;5070675;28;20503;-72
2021/11/16 10:20:38;;;;;;;30.48;13.00;;;8.50;99.90;;;;;;5070831;28;20417;-72
2021/11/16 10:23:08;;;;;;;31.13;12.52;;;8.60;99.90;;;;;;5071512;28;20059;-74
2021/11/16 10:25:36;;;;;;;31.35;12.90;;;8.60;99.90;;;;;;5091187;28;20473;-73
2021/11/16 10:28:11;;;;;;;33.15;12.93;;;8.60;99.90;;;;;;5072041;28;20519;-72
2021/11/16 10:30:38;;;;;;;37.65;13.07;;;8.60;99.90;;;;;;5072820;28;20070;-74
2021/11/16 10:33:17;;;;;;;31.77;12.15;;;8.60;99.90;;;;;;5072928;28;20503;-76
2021/11/16 10:35:47;;;;;;;34.83;12.82;;;8.60;99.90;;;;;;5075244;28;20119;-74
2021/11/16 10:38:16;;;;;;;30.40;12.63;;;8.60;99.90;;;;;;5071879;28;20040;-74
2021/11/16 10:40:42;;;;;;;35.60;13.40;;;8.60;99.90;;;;;;5072382;28;20032;-74
2021/11/16 10:43:09;;;;;;;33.00;12.93;;;8.60;99.90;;;;;;5089729;28;20036;-76
2021/11/16 10:45:41;;;;;;;31.55;13.25;;;8.60;99.90;;;;;;5073628;28;20053;-76
2021/11/16 10:48:11;;;;;;;32.78;12.77;;;8.60;99.90;;;;;;5072824;28;20036;-76
2021/11/16 10:50:40;;;;;;;29.60;13.23;;;8.60;99.90;;;;;;5072208;28;20039;-73
2021/11/16 10:53:09;;;;;;;31.95;12.98;;;8.60;99.90;;;;;;5070294;28;20024;-73
2021/11/16 10:55:42;;;;;;;31.80;12.70;;;8.60;99.90;;;;;;5073622;28;20342;-73
2021/11/16 10:58:10;;;;;;;32.08;14.07;;;8.50;99.90;;;;;;5089412;28;20084;-73
2021/11/16 11:00:41;;;;;;;32.83;12.85;;;8.60;99.90;;;;;;5089281;28;20020;-76
2021/11/16 11:03:29;;;;;;;31.88;12.77;;;8.60;99.90;;;;;;5064676;28;20485;-75
2021/11/16 11:05:57;;;;;;;32.47;13.30;;;8.60;99.90;;;;;;5091259;28;20071;-73
2021/11/16 11:08:44;;;;;;;34.55;12.90;;;8.60;99.90;;;;;;5089981;28;20089;-73
2021/11/16 11:11:25;;;;;;;29.80;12.85;;;8.60;99.90;;;;;;5068041;28;20114;-73
2021/11/16 11:14:09;;;;;;;34.72;13.52;;;8.60;99.90;;;;;;5061970;28;20144;-73
2021/11/16 11:16:36;;;;;;;32.80;12.68;;;8.60;99.90;;;;;;5071125;28;20493;-73
2021/11/16 11:19:04;;;;;;;35.15;14.27;;;8.60;99.90;;;;;;5065050;28;20035;-73
2021/11/16 11:21:47;;;;;;;33.70;13.60;;;8.60;99.90;;;;;;5082082;28;20102;-73
2021/11/16 11:24:26;;;;;;;30.33;13.05;;;8.60;99.90;;;;;;5070003;28;20488;-73
2021/11/16 11:27:09;;;;;;;35.15;14.02;;;8.50;99.90;;;;;;5087051;28;20024;-74
2021/11/16 11:29:44;;;;;;;36.92;14.95;;;8.60;99.90;;;;;;5083713;28;20019;-73
2021/11/16 11:32:17;;;;;;;33.78;13.93;;;8.60;99.90;;;;;;5089121;28;20031;-76
2021/11/16 11:34:48;;;;;;;34.25;13.77;;;8.50;99.90;;;;;;5068767;28;20032;-79
2021/11/16 11:37:17;;;;;;;35.22;14.02;;;8.50;99.90;;;;;;5070754;28;20044;-74
2021/11/16 11:39:45;;;;;;;35.53;13.98;;;8.40;99.90;;;;;;5071000;28;20118;-74
2021/11/16 11:42:14;;;;;;;33.63;12.80;;;8.40;99.90;;;;;;5070534;28;20063;-74
2021/11/16 11:45:08;;;;;;;33.28;12.10;;;8.50;99.90;;;;;;5070048;28;20055;-74
2021/11/16 11:47:35;;;;;;;34.05;13.43;;;8.50;99.90;;;;;;5068305;28;20653;-76
2021/11/16 11:50:19;;;;;;;32.58;12.55;;;8.50;99.90;;;;;;5067846;28;20100;-74
2021/11/16 11:52:46;;;;;;;32.47;12.75;;;8.40;99.90;;;;;;5086303;28;20457;-75
2021/11/16 11:55:12;;;;;;;33.35;13.05;;;8.40;99.90;;;;;;5068965;28;20028;-75
2021/11/16 11:57:39;;;;;;;34.13;12.75;;;8.40;99.90;;;;;;5070042;28;20108;-74
2021/11/16 12:00:07;;;;;;;31.60;13.02;;;8.40;99.90;;;;;;5088759;28;20039;-75
2021/11/16 12:02:34;;;;;;;32.28;12.70;;;8.50;99.90;;;;;;5092708;28;20032;-75
2021/11/16 12:05:00;;;;;;;33.08;13.20;;;8.50;99.90;;;;;;5072734;28;20032;-76
2021/11/16 12:07:29;;;;;;;37.55;13.38;;;8.50;99.90;;;;;;5089270;28;20040;-75
2021/11/16 12:09:56;;;;;;;32.10;12.20;;;8.50;99.90;;;;;;5092891;28;20036;-76
2021/11/16 12:12:23;;;;;;;34.38;13.35;;;8.40;99.90;;;;;;5074070;28;20102;-74
2021/11/16 12:15:20;;;;;;;30.92;12.02;;;8.40;99.90;;;;;;5074181;28;20381;-76
2021/11/16 12:17:55;;;;;;;31.02;12.15;;;8.40;99.90;;;;;;5070904;28;20036;-74
2021/11/16 12:20:41;;;;;;;26.45;11.27;;;8.40;99.90;;;;;;5069956;28;20038;-73
2021/11/16 12:23:15;;;;;;;28.35;10.98;;;8.50;99.90;;;;;;5085035;28;20042;-78
2021/11/16 12:25:43;;;;;;;32.03;13.00;;;8.40;99.90;;;;;;5085403;28;20024;-74
2021/11/16 12:28:31;;;;;;;29.00;12.48;;;8.40;99.90;;;;;;5072966;28;20817;-75
2021/11/16 12:31:02;;;;;;;29.00;12.52;;;8.40;99.90;;;;;;5071452;28;20030;-76
2021/11/16 12:33:44;;;;;;;32.08;12.68;;;8.50;99.90;;;;;;5074377;28;20113;-77
2021/11/16 12:36:35;;;;;;;30.75;11.95;;;8.50;99.90;;;;;;5071048;28;20036;-74
2021/11/16 12:39:14;;;;;;;29.42;12.02;;;8.40;99.90;;;;;;5086966;28;20500;-76
2021/11/16 12:41:42;;;;;;;28.00;12.40;;;8.40;99.90;;;;;;5072560;28;20035;-76
2021/11/16 12:44:17;;;;;;;33.53;11.80;;;8.40;99.90;;;;;;5091743;28;20358;-78
2021/11/16 12:46:44;;;;;;;29.92;11.90;;;8.40;99.90;;;;;;5074377;28;20028;-74
2021/11/16 12:49:37;;;;;;;27.83;12.13;;;8.40;99.90;;;;;;5085669;28;20020;-75
2021/11/16 12:52:04;;;;;;;;;;;8.40;99.90;;;;;;5070028;28;20035;-74
2021/11/16 12:54:34;;;;;;;27.40;10.63;;;8.40;99.90;;;;;;5070067;28;19908;-74
2021/11/16 12:57:00;;;;;;;27.05;10.45;;;8.50;99.90;;;;;;5068879;28;20045;-75
2021/11/16 12:59:32;;;;;;;28.02;11.52;;;8.50;99.90;;;;;;5066146;28;20024;-74
2021/11/16 13:02:39;;;;;;;26.83;11.15;;;8.40;99.90;;;;;;5069884;28;20032;-75
2021/11/16 13:05:08;;;;;;;25.67;10.98;;;8.40;99.90;;;;;;5060232;28;20041;-75
2021/11/16 13:07:53;;;;;;;26.42;11.32;;;8.30;99.90;;;;;;5067569;28;20036;-75